createdAt,value
2022-12-09T00:02:26.631Z,11.00
2022-12-09T00:04:56.539Z,11.00
2022-12-09T00:07:27.332Z,11.10
2022-12-09T00:09:57.901Z,11.10
2022-12-09T00:12:28.566Z,11.00
2022-12-09T00:14:58.384Z,11.00
2022-12-09T00:17:28.931Z,11.00
2022-12-09T00:19:59.803Z,11.00
2022-12-09T00:22:31.897Z,11.00
2022-12-09T00:25:03.060Z,11.00
2022-12-09T00:27:33.459Z,11.00
2022-12-09T00:30:04.387Z,11.00
2022-12-09T00:32:35.600Z,10.90
2022-12-09T00:35:06.982Z,10.90
2022-12-09T00:37:37.688Z,10.90
2022-12-09T00:40:08.764Z,10.90
2022-12-09T00:42:38.843Z,10.90
2022-12-09T00:45:09.910Z,10.90
2022-12-09T00:47:40.143Z,10.90
2022-12-09T00:50:10.821Z,10.90
2022-12-09T00:52:40.253Z,10.90
2022-12-09T00:55:10.652Z,10.90
2022-12-09T00:57:42.094Z,11.00
2022-12-09T01:00:12.693Z,11.00
2022-12-09T01:02:43.523Z,11.00
2022-12-09T01:05:13.748Z,11.00
2022-12-09T01:07:44.167Z,10.90
2022-12-09T01:10:14.252Z,10.90
2022-12-09T01:12:45.043Z,11.00
2022-12-09T01:15:15.427Z,10.90
2022-12-09T01:17:45.611Z,11.00
2022-12-09T01:20:15.793Z,10.90
2022-12-09T01:22:46.009Z,11.00
2022-12-09T01:25:16.643Z,10.90
2022-12-09T01:27:46.900Z,11.00
2022-12-09T01:30:17.203Z,11.00
2022-12-09T01:32:50.973Z,11.00
2022-12-09T01:35:21.365Z,11.10
2022-12-09T01:37:51.300Z,11.10
2022-12-09T01:40:21.970Z,11.10
2022-12-09T01:42:53.432Z,11.20
2022-12-09T01:45:43.530Z,11.20
2022-12-09T01:48:22.350Z,11.30
2022-12-09T01:51:00.646Z,11.30
2022-12-09T01:53:37.032Z,11.30
2022-12-09T01:56:13.911Z,11.40
2022-12-09T01:58:44.854Z,11.50
2022-12-09T02:01:14.971Z,11.60
2022-12-09T02:03:45.642Z,11.70
2022-12-09T02:06:18.563Z,11.70
2022-12-09T02:08:50.944Z,11.80
2022-12-09T02:11:48.094Z,12.00
2022-12-09T02:14:30.167Z,12.20
2022-12-09T02:17:27.933Z,12.30
2022-12-09T02:20:12.224Z,12.50
2022-12-09T02:23:02.979Z,12.50
2022-12-09T02:25:57.542Z,12.60
2022-12-09T02:28:56.997Z,12.70
2022-12-09T02:31:46.884Z,12.70
2022-12-09T02:34:22.232Z,12.70
2022-12-09T02:37:18.983Z,12.80
2022-12-09T02:40:02.960Z,12.90
2022-12-09T02:42:38.988Z,12.90
2022-12-09T02:45:12.967Z,13.00
2022-12-09T02:47:51.963Z,13.10
2022-12-09T02:50:31.643Z,13.20
2022-12-09T02:53:06.597Z,13.30
2022-12-09T02:55:42.785Z,13.40
2022-12-09T02:58:13.123Z,13.50
2022-12-09T03:00:46.031Z,13.60
2022-12-09T03:03:19.378Z,13.70
2022-12-09T03:06:17.910Z,13.70
2022-12-09T03:08:59.302Z,13.90
2022-12-09T03:11:31.103Z,13.90
2022-12-09T03:14:17.676Z,14.00
2022-12-09T03:17:26.838Z,14.10
2022-12-09T03:20:03.120Z,14.10
2022-12-09T03:22:37.502Z,14.20
2022-12-09T03:25:30.483Z,14.30
2022-12-09T03:28:07.445Z,14.30
2022-12-09T03:30:41.330Z,14.30
2022-12-09T03:33:12.857Z,14.30
2022-12-09T03:35:48.617Z,14.40
2022-12-09T03:38:22.834Z,14.50
2022-12-09T03:41:02.811Z,14.60
2022-12-09T03:43:38.824Z,14.80
2022-12-09T03:46:08.982Z,14.90
2022-12-09T03:48:39.176Z,15.00
2022-12-09T03:51:19.890Z,15.10
2022-12-09T03:54:22.102Z,15.30
2022-12-09T03:56:55.485Z,15.30
2022-12-09T03:59:28.208Z,15.40
2022-12-09T04:01:59.060Z,15.40
2022-12-09T04:04:30.623Z,15.40
2022-12-09T04:07:01.290Z,15.40
2022-12-09T04:09:30.889Z,15.60
2022-12-09T04:12:02.324Z,15.70
2022-12-09T04:14:36.439Z,15.70
2022-12-09T04:17:06.881Z,15.70
2022-12-09T04:19:37.532Z,15.70
2022-12-09T04:22:07.773Z,15.90
2022-12-09T04:24:37.773Z,16.00
2022-12-09T04:27:07.941Z,15.90
2022-12-09T04:29:38.314Z,16.00
2022-12-09T04:32:08.836Z,16.10
2022-12-09T04:34:38.484Z,16.20
2022-12-09T04:37:10.008Z,16.20
2022-12-09T04:39:43.699Z,16.30
2022-12-09T04:42:15.114Z,16.40
2022-12-09T04:44:45.342Z,16.50
2022-12-09T04:47:16.255Z,16.60
2022-12-09T04:49:47.307Z,16.70
2022-12-09T04:52:20.981Z,16.80
2022-12-09T04:54:52.771Z,16.80
2022-12-09T04:57:24.133Z,16.80
2022-12-09T04:59:54.575Z,16.90
2022-12-09T05:02:25.259Z,17.10
2022-12-09T05:04:55.407Z,17.20
2022-12-09T05:07:26.879Z,17.40
2022-12-09T05:09:57.264Z,17.40
2022-12-09T05:12:27.652Z,17.40
2022-12-09T05:14:57.919Z,17.50
2022-12-09T05:17:28.275Z,17.60
2022-12-09T05:19:58.631Z,17.70
2022-12-09T05:22:29.330Z,17.80
2022-12-09T06:02:15.164Z,18.40
2022-12-09T06:04:45.601Z,18.50
2022-12-09T06:07:16.056Z,18.70
2022-12-09T06:09:46.505Z,18.90
2022-12-09T06:12:17.657Z,18.90
2022-12-09T06:14:47.697Z,19.00
2022-12-09T06:17:18.712Z,19.10
2022-12-09T06:19:49.081Z,19.10
2022-12-09T06:22:19.649Z,19.20
2022-12-09T06:24:55.509Z,19.20
2022-12-09T06:31:10.202Z,19.40
2022-12-09T06:34:00.459Z,19.40
2022-12-09T06:36:33.329Z,19.40
2022-12-09T06:39:10.531Z,19.40
2022-12-09T06:41:45.174Z,19.40
2022-12-09T06:44:23.229Z,19.60
2022-12-09T06:54:44.989Z,19.80
2022-12-09T07:08:20.733Z,20.00
2022-12-09T07:10:56.555Z,20.00
2022-12-09T07:13:27.104Z,19.90
2022-12-09T07:15:57.628Z,19.90
2022-12-09T07:18:27.807Z,19.90
2022-12-09T07:20:58.694Z,20.00
2022-12-09T07:23:28.432Z,20.00
2022-12-09T07:33:28.715Z,20.10
2022-12-09T07:36:01.124Z,20.10
2022-12-09T07:38:31.636Z,20.20
2022-12-09T07:41:08.259Z,20.20
2022-12-09T07:43:39.798Z,20.20
2022-12-09T07:46:10.790Z,20.20
2022-12-09T07:48:41.743Z,20.20
2022-12-09T07:51:14.589Z,20.30
2022-12-09T07:53:46.029Z,20.30
2022-12-09T07:56:17.897Z,20.40
2022-12-09T07:58:50.640Z,20.40
2022-12-09T08:01:25.306Z,20.40
2022-12-09T08:03:56.829Z,20.40
2022-12-09T08:06:29.659Z,20.30
2022-12-09T08:09:03.338Z,20.40
2022-12-09T08:11:34.998Z,20.30
2022-12-09T08:14:12.277Z,20.30
2022-12-09T08:16:44.721Z,20.40
2022-12-09T08:19:17.029Z,20.40
2022-12-09T08:21:51.451Z,20.30
2022-12-09T08:24:24.808Z,20.40
2022-12-09T10:07:53.840Z,19.10
2022-12-09T10:10:55.584Z,18.90
2022-12-09T11:04:48.013Z,17.90
2022-12-09T11:07:25.237Z,17.90
2022-12-09T11:10:19.902Z,17.90
2022-12-09T11:12:55.514Z,17.90
2022-12-09T11:15:32.364Z,17.80
2022-12-09T11:18:08.846Z,17.80
2022-12-09T11:20:40.129Z,17.70
2022-12-09T11:23:20.418Z,17.70
2022-12-09T11:26:05.340Z,17.60
2022-12-09T11:28:38.511Z,17.60
2022-12-09T11:31:29.592Z,17.50
2022-12-09T11:34:05.375Z,17.50
2022-12-09T11:36:42.324Z,17.50
2022-12-09T11:39:30.247Z,17.30
2022-12-09T11:42:21.186Z,17.30
2022-12-09T11:45:02.300Z,17.30
2022-12-09T11:48:24.155Z,17.20
2022-12-09T11:50:44.189Z,17.10
2022-12-09T11:53:36.879Z,17.10
2022-12-09T11:56:19.543Z,17.00
2022-12-09T11:59:15.124Z,17.00
2022-12-09T12:02:08.617Z,16.90
2022-12-09T12:04:51.034Z,16.90
2022-12-09T12:07:42.775Z,16.80
2022-12-09T12:10:39.439Z,16.70
2022-12-09T12:13:27.204Z,16.70
2022-12-09T12:16:14.384Z,16.70
2022-12-09T12:19:13.756Z,16.60
2022-12-09T12:22:12.416Z,16.60
2022-12-09T12:25:18.053Z,16.60
2022-12-09T12:28:17.263Z,16.50
2022-12-09T12:31:23.903Z,16.50
2022-12-09T12:34:27.156Z,16.50
2022-12-09T12:37:24.647Z,16.40
2022-12-09T12:40:26.934Z,16.50
2022-12-09T12:43:23.889Z,16.40
2022-12-09T12:46:14.298Z,16.40
2022-12-09T12:49:14.883Z,16.30
2022-12-09T12:52:39.378Z,16.30
2022-12-09T12:55:24.901Z,16.30
2022-12-09T12:58:25.641Z,16.20
2022-12-09T13:01:08.244Z,16.20
2022-12-09T13:04:15.853Z,16.20
2022-12-09T13:07:05.906Z,16.10
2022-12-09T13:09:46.509Z,16.10
2022-12-09T13:12:20.256Z,16.20
2022-12-09T13:14:56.297Z,16.10
2022-12-09T13:17:32.148Z,16.10
2022-12-09T13:20:05.527Z,16.20
2022-12-09T13:22:56.994Z,16.10
2022-12-09T13:25:56.653Z,16.10
2022-12-09T13:28:41.656Z,16.00
2022-12-09T13:31:13.720Z,16.00
2022-12-09T13:34:10.068Z,16.00
2022-12-09T13:36:44.647Z,16.00
2022-12-09T13:39:35.121Z,16.00
2022-12-09T13:42:17.318Z,16.00
2022-12-09T13:44:48.505Z,15.90
2022-12-09T13:47:38.226Z,15.90
2022-12-09T13:50:23.811Z,15.90
2022-12-09T13:52:59.050Z,15.80
2022-12-09T13:55:35.031Z,15.80
2022-12-09T13:58:32.675Z,15.70
2022-12-09T14:01:31.471Z,15.70
2022-12-09T14:04:13.992Z,15.70
2022-12-09T14:07:10.039Z,15.60
2022-12-09T14:09:53.095Z,15.60
2022-12-09T14:13:01.848Z,15.50
2022-12-09T14:15:38.408Z,15.60
2022-12-09T14:18:30.155Z,15.50
2022-12-09T14:21:27.229Z,15.50
2022-12-09T14:24:30.735Z,15.40
2022-12-09T14:27:18.261Z,15.50
2022-12-09T14:29:56.125Z,15.40
2022-12-09T14:32:38.899Z,15.30
2022-12-09T14:35:24.996Z,15.30
2022-12-09T14:38:24.050Z,15.20
2022-12-09T14:41:08.146Z,15.20
2022-12-09T14:44:02.577Z,15.20
2022-12-09T14:46:39.919Z,15.20
2022-12-09T14:49:19.570Z,15.10
2022-12-09T14:51:53.100Z,15.00
2022-12-09T14:54:30.161Z,15.00
2022-12-09T14:57:02.642Z,14.90
2022-12-09T14:59:34.411Z,15.00
2022-12-09T15:02:25.451Z,14.90
2022-12-09T15:04:56.721Z,15.00
2022-12-09T15:07:30.280Z,14.80
2022-12-09T15:10:07.512Z,14.80
2022-12-09T15:12:43.507Z,14.70
2022-12-09T15:15:27.960Z,14.70
2022-12-09T15:18:19.474Z,14.70
2022-12-09T15:21:03.062Z,14.60
2022-12-09T15:23:36.324Z,14.70
2022-12-09T15:26:31.596Z,14.60
2022-12-09T15:29:02.716Z,14.60
2022-12-09T15:31:34.586Z,14.60
2022-12-09T15:34:19.358Z,14.50
2022-12-09T15:36:57.202Z,14.50
2022-12-09T15:39:48.741Z,14.40
2022-12-09T15:42:27.752Z,14.40
2022-12-09T15:45:11.603Z,14.40
2022-12-09T15:48:07.541Z,14.40
2022-12-09T15:50:58.499Z,14.30
2022-12-09T15:53:40.912Z,14.30
2022-12-09T15:56:20.026Z,14.30
2022-12-09T15:58:54.620Z,14.20
2022-12-09T16:01:29.153Z,14.20
2022-12-09T16:04:02.311Z,14.30
2022-12-09T16:06:39.941Z,14.20
2022-12-09T16:09:20.848Z,14.10
2022-12-09T16:11:54.077Z,14.10
2022-12-09T16:14:26.561Z,14.00
2022-12-09T16:17:03.072Z,14.00
2022-12-09T16:19:39.962Z,13.90
2022-12-09T16:22:23.927Z,13.90
2022-12-09T16:25:14.592Z,13.90
2022-12-09T16:27:50.924Z,13.90
2022-12-09T16:30:25.327Z,13.90
2022-12-09T16:32:57.301Z,13.80
2022-12-09T16:35:31.011Z,13.80
2022-12-09T16:38:21.125Z,13.80
2022-12-09T16:41:08.713Z,13.80
2022-12-09T16:43:43.867Z,13.80
2022-12-09T16:46:39.294Z,13.80
2022-12-09T16:49:10.095Z,13.80
2022-12-09T16:51:40.981Z,13.70
2022-12-09T16:54:20.464Z,13.70
2022-12-09T16:56:53.913Z,13.70
2022-12-09T16:59:23.939Z,13.70
2022-12-09T17:01:53.982Z,13.70
2022-12-09T17:04:30.335Z,13.60
2022-12-09T17:07:00.516Z,13.60
2022-12-09T17:09:30.447Z,13.50
2022-12-09T17:12:00.427Z,13.50
2022-12-09T17:14:30.847Z,13.50
2022-12-09T17:17:00.890Z,13.40
2022-12-09T17:19:31.296Z,13.50
2022-12-09T17:22:01.433Z,13.40
2022-12-09T17:24:31.634Z,13.40
2022-12-09T17:27:01.789Z,13.30
2022-12-09T17:29:32.627Z,13.30
2022-12-09T17:32:02.683Z,13.30
2022-12-09T17:34:32.844Z,13.20
2022-12-09T17:37:02.853Z,13.20
2022-12-09T17:39:32.837Z,13.20
2022-12-09T17:42:03.144Z,13.20
2022-12-09T17:44:33.139Z,13.20
2022-12-09T17:47:03.139Z,13.10
2022-12-09T17:49:33.731Z,13.10
2022-12-09T17:52:03.022Z,13.10
2022-12-09T17:54:33.102Z,13.10
2022-12-09T17:57:03.050Z,13.10
2022-12-09T17:59:33.871Z,13.00
2022-12-09T18:02:06.338Z,13.00
2022-12-09T18:04:39.533Z,12.90
2022-12-09T18:07:10.228Z,13.00
2022-12-09T18:09:39.913Z,13.00
2022-12-09T18:12:10.336Z,12.90
2022-12-09T18:14:40.895Z,12.90
2022-12-09T18:17:12.241Z,12.90
2022-12-09T18:19:42.836Z,12.80
2022-12-09T18:22:13.225Z,12.80
2022-12-09T18:24:43.333Z,12.80
2022-12-09T18:27:13.349Z,12.80
2022-12-09T18:29:43.729Z,12.80
2022-12-09T18:32:15.556Z,12.80
2022-12-09T18:34:51.383Z,12.70
2022-12-09T18:37:32.588Z,12.70
2022-12-09T18:40:07.059Z,12.70
2022-12-09T18:42:38.439Z,12.70
2022-12-09T18:45:09.566Z,12.60
2022-12-09T18:47:40.342Z,12.60
2022-12-09T18:50:10.476Z,12.60
2022-12-09T18:52:42.887Z,12.60
2022-12-09T18:55:13.445Z,12.60
2022-12-09T18:57:44.738Z,12.60
2022-12-09T19:00:18.381Z,12.60
2022-12-09T19:02:48.933Z,12.50
2022-12-09T19:05:18.787Z,12.50
2022-12-09T19:07:48.814Z,12.50
2022-12-09T19:10:19.349Z,12.50
2022-12-09T19:12:53.737Z,12.40
2022-12-09T19:15:26.618Z,12.40
2022-12-09T19:17:56.837Z,12.40
2022-12-09T19:20:29.411Z,12.40
2022-12-09T19:22:59.423Z,12.30
2022-12-09T19:25:29.457Z,12.40
2022-12-09T19:27:59.363Z,12.40
2022-12-09T19:30:31.073Z,12.30
2022-12-09T19:33:02.137Z,12.30
2022-12-09T19:35:32.179Z,12.30
2022-12-09T19:38:02.467Z,12.30
2022-12-09T19:40:32.327Z,12.30
2022-12-09T19:43:02.351Z,12.30
2022-12-09T19:45:32.734Z,12.20
2022-12-09T19:48:02.594Z,12.20
2022-12-09T19:50:33.351Z,12.20
2022-12-09T19:53:02.566Z,12.20
2022-12-09T19:55:32.423Z,12.20
2022-12-09T19:58:05.975Z,12.20
2022-12-09T20:00:41.607Z,12.10
2022-12-09T20:03:15.912Z,12.10
2022-12-09T20:05:58.018Z,12.10
2022-12-09T20:08:28.297Z,12.10
2022-12-09T20:11:02.216Z,12.10
2022-12-09T20:13:32.318Z,12.10
2022-12-09T20:16:10.030Z,12.10
2022-12-09T20:18:41.050Z,12.10
2022-12-09T20:21:13.329Z,12.00
2022-12-09T20:23:45.138Z,12.00
2022-12-09T20:26:19.437Z,12.00
2022-12-09T20:28:51.624Z,12.00
2022-12-09T20:31:24.903Z,12.00
2022-12-09T20:34:03.314Z,11.90
2022-12-09T20:36:35.281Z,12.00
2022-12-09T20:39:12.855Z,11.90
2022-12-09T20:41:44.007Z,11.80
2022-12-09T20:44:15.797Z,11.80
2022-12-09T20:46:49.744Z,11.80
2022-12-09T20:49:22.121Z,11.90
2022-12-09T20:51:52.179Z,11.80
2022-12-09T20:54:22.127Z,11.80
2022-12-09T20:56:52.134Z,11.80
2022-12-09T20:59:22.321Z,11.80
2022-12-09T21:01:52.337Z,11.80
2022-12-09T21:04:23.384Z,11.70
2022-12-09T21:06:56.485Z,11.70
2022-12-09T21:09:29.028Z,11.70
2022-12-09T21:12:02.452Z,11.70
2022-12-09T21:14:37.316Z,11.70
2022-12-09T21:17:08.372Z,11.60
2022-12-09T21:19:39.143Z,11.60
2022-12-09T21:22:08.871Z,11.60
2022-12-09T21:24:38.917Z,11.60
2022-12-09T21:27:08.744Z,11.60
2022-12-09T21:29:39.489Z,11.60
2022-12-09T21:32:08.769Z,11.60
2022-12-09T21:34:38.827Z,11.60
2022-12-09T21:37:08.897Z,11.60
2022-12-09T21:39:38.809Z,11.60
2022-12-09T21:42:08.842Z,11.50
2022-12-09T21:44:38.858Z,11.50
2022-12-09T21:47:08.677Z,11.50
2022-12-09T21:49:38.557Z,11.50
2022-12-09T21:52:08.708Z,11.50
2022-12-09T21:54:39.770Z,11.50
2022-12-09T21:57:09.885Z,11.40
2022-12-09T21:59:39.799Z,11.50
2022-12-09T22:02:10.078Z,11.40
2022-12-09T22:04:40.271Z,11.40
2022-12-09T22:07:10.178Z,11.40
2022-12-09T22:09:40.114Z,11.40
2022-12-09T22:12:10.446Z,11.40
2022-12-09T22:14:40.464Z,11.50
2022-12-09T22:17:10.358Z,11.50
2022-12-09T22:19:40.486Z,11.50
2022-12-09T22:22:10.514Z,11.50
2022-12-09T22:24:40.727Z,11.40
2022-12-09T22:27:10.847Z,11.40
2022-12-09T22:29:40.868Z,11.40
2022-12-09T22:32:10.795Z,11.40
2022-12-09T22:34:40.814Z,11.40
2022-12-09T22:37:35.270Z,11.40
2022-12-09T22:40:00.605Z,11.30
2022-12-09T22:42:32.103Z,11.40
2022-12-09T22:45:02.083Z,11.30
2022-12-09T22:47:31.942Z,11.30
2022-12-09T22:50:01.837Z,11.30
2022-12-09T22:52:33.017Z,11.20
2022-12-09T22:55:04.287Z,11.20
2022-12-09T22:57:36.425Z,11.20
2022-12-09T23:00:13.946Z,11.10
2022-12-09T23:02:44.617Z,11.20
2022-12-09T23:05:14.504Z,11.10
2022-12-09T23:07:45.003Z,11.10
2022-12-09T23:10:15.625Z,11.10
2022-12-09T23:12:45.913Z,11.10
2022-12-09T23:15:16.271Z,11.10
2022-12-09T23:17:46.848Z,11.10
2022-12-09T23:20:17.222Z,11.10
2022-12-09T23:22:47.816Z,11.00
2022-12-09T23:25:18.308Z,11.00
2022-12-09T23:27:48.759Z,11.00
2022-12-09T23:30:19.413Z,11.00
2022-12-09T23:32:49.817Z,11.00
2022-12-09T23:35:20.459Z,11.10
2022-12-09T23:37:50.879Z,11.00
2022-12-09T23:40:22.326Z,11.10
2022-12-09T23:42:55.954Z,11.00
2022-12-09T23:45:26.909Z,11.00
2022-12-09T23:47:57.301Z,11.00
2022-12-09T23:50:28.274Z,10.90
2022-12-09T23:52:58.707Z,10.90
2022-12-09T23:55:29.104Z,11.00
2022-12-09T23:57:59.455Z,10.90
